Time;durP1;ratioP1;P1;durP2;ratioP2;P2;SDS_P1;SDS_P2;PMS_P1;PMS_P2;Temp;Humidity;BMP_temperature;BMP_pressure;BME280_temperature;BME280_humidity;BME280_pressure;Samples;Min_cycle;Max_cycle;Signal;HPM_P1;HPM_P2
2022/07/06 00:01:40;;;;;;;8.25;1.58;;;13.90;99.90;;;;;;5052332;28;20049;-83
2022/07/06 00:04:06;;;;;;;4.90;1.08;;;13.90;99.90;;;;;;5050806;28;20075;-83
2022/07/06 00:06:33;;;;;;;2.47;0.80;;;14.00;99.90;;;;;;5084424;28;20052;-83
2022/07/06 00:08:58;;;;;;;6.60;1.30;;;13.90;99.90;;;;;;5052790;28;20076;-84
2022/07/06 00:11:24;;;;;;;2.95;1.05;;;13.90;99.90;;;;;;5051274;28;20401;-83
2022/07/06 00:13:51;;;;;;;7.50;1.00;;;13.90;99.90;;;;;;5052689;28;20091;-84
2022/07/06 00:16:18;;;;;;;7.07;1.10;;;13.90;99.90;;;;;;5086066;28;20053;-84
2022/07/06 00:18:44;;;;;;;4.65;0.80;;;13.90;99.90;;;;;;5054141;28;20056;-84
2022/07/06 00:21:10;;;;;;;4.30;1.00;;;13.80;99.90;;;;;;5056381;28;20041;-83
2022/07/06 00:23:36;;;;;;;4.25;0.90;;;13.80;99.90;;;;;;5070965;28;20118;-84
2022/07/06 00:26:02;;;;;;;3.25;0.80;;;13.80;99.90;;;;;;5084776;28;20041;-84
2022/07/06 00:28:28;;;;;;;4.22;0.90;;;13.80;99.90;;;;;;5052137;28;20057;-83
2022/07/06 00:30:53;;;;;;;5.47;0.85;;;13.80;99.90;;;;;;5056250;28;20093;-84
2022/07/06 00:33:20;;;;;;;7.43;1.23;;;13.80;99.90;;;;;;5070412;28;20114;-84
2022/07/06 00:35:45;;;;;;;6.97;1.23;;;13.80;99.90;;;;;;5056081;28;20033;-83
2022/07/06 00:38:11;;;;;;;5.47;1.13;;;13.80;99.90;;;;;;5054385;28;20047;-83
2022/07/06 00:40:37;;;;;;;5.20;1.48;;;13.80;99.90;;;;;;5054833;28;20041;-83
2022/07/06 00:43:03;;;;;;;5.85;1.15;;;13.80;99.90;;;;;;5053452;28;20045;-83
2022/07/06 00:45:29;;;;;;;5.35;1.73;;;13.80;99.90;;;;;;5053763;28;20048;-83
2022/07/06 00:47:57;;;;;;;5.28;1.30;;;13.80;99.90;;;;;;5087781;28;20040;-83
2022/07/06 00:50:23;;;;;;;4.85;0.90;;;13.80;99.90;;;;;;5088145;28;20515;-83
2022/07/06 00:52:51;;;;;;;4.80;1.00;;;13.80;99.90;;;;;;5086122;28;20085;-83
2022/07/06 00:55:21;;;;;;;4.38;1.00;;;13.80;99.90;;;;;;5087929;28;20512;-83
2022/07/06 00:57:47;;;;;;;4.80;0.82;;;13.80;99.90;;;;;;5055197;28;20048;-84
2022/07/06 01:00:16;;;;;;;2.53;0.90;;;13.80;99.90;;;;;;5054752;28;20103;-83
2022/07/06 01:02:42;;;;;;;5.70;1.20;;;13.80;99.90;;;;;;5054103;28;20370;-83
2022/07/06 01:05:10;;;;;;;6.57;1.35;;;13.70;99.90;;;;;;5055630;28;20061;-84
2022/07/06 01:07:38;;;;;;;4.88;0.90;;;13.70;99.90;;;;;;5086411;28;20448;-83
2022/07/06 01:10:07;;;;;;;5.03;0.95;;;13.70;99.90;;;;;;5087799;28;20385;-84
2022/07/06 01:12:36;;;;;;;3.83;1.10;;;13.70;99.90;;;;;;5054932;28;20076;-83
2022/07/06 01:15:04;;;;;;;3.35;1.00;;;13.70;99.90;;;;;;5070246;28;20151;-84
2022/07/06 01:17:30;;;;;;;6.22;1.00;;;13.70;99.90;;;;;;5070330;28;20393;-83
2022/07/06 01:19:56;;;;;;;5.05;0.95;;;13.70;99.90;;;;;;5087645;28;20045;-83
2022/07/06 01:22:22;;;;;;;4.47;1.00;;;13.70;99.90;;;;;;5054972;28;20048;-83
2022/07/06 01:24:47;;;;;;;7.10;1.25;;;13.70;99.90;;;;;;5087393;28;20047;-83
2022/07/06 01:27:13;;;;;;;3.60;0.85;;;13.70;99.90;;;;;;5054412;28;20041;-84
2022/07/06 01:29:39;;;;;;;4.70;1.00;;;13.70;99.90;;;;;;5086772;28;20052;-83
2022/07/06 01:32:05;;;;;;;10.40;1.52;;;13.70;99.90;;;;;;5087082;28;20124;-83
2022/07/06 01:34:31;;;;;;;4.97;1.25;;;13.70;99.90;;;;;;5054305;28;20045;-83
2022/07/06 01:36:57;;;;;;;6.97;1.00;;;13.70;99.90;;;;;;5069762;28;20401;-83
2022/07/06 01:39:23;;;;;;;6.22;1.00;;;13.70;99.90;;;;;;5053460;28;20044;-83
2022/07/06 01:41:48;;;;;;;7.25;1.58;;;13.70;99.90;;;;;;5053421;28;20045;-84
2022/07/06 01:44:14;;;;;;;4.53;1.33;;;13.70;99.90;;;;;;5053693;28;20504;-83
2022/07/06 01:46:40;;;;;;;5.85;1.05;;;13.70;99.90;;;;;;5087033;28;20049;-83
2022/07/06 01:49:08;;;;;;;5.53;1.10;;;13.70;99.90;;;;;;5052061;28;20044;-83
2022/07/06 01:51:34;;;;;;;4.20;1.00;;;13.70;99.90;;;;;;5069910;28;20049;-83
2022/07/06 01:54:00;;;;;;;7.20;1.00;;;13.70;99.90;;;;;;5053902;28;20052;-83
2022/07/06 01:56:26;;;;;;;4.45;1.27;;;13.70;99.90;;;;;;5054016;28;20055;-84
2022/07/06 01:58:51;;;;;;;3.22;1.00;;;13.70;99.90;;;;;;5086787;28;20037;-82
2022/07/06 02:01:19;;;;;;;7.40;1.90;;;13.70;99.90;;;;;;5086203;28;20091;-82
2022/07/06 02:03:46;;;;;;;9.20;1.23;;;13.70;99.90;;;;;;5053617;28;20076;-81
2022/07/06 02:06:12;;;;;;;3.35;1.00;;;13.70;99.90;;;;;;5086059;28;20052;-82
2022/07/06 02:08:38;;;;;;;9.05;0.90;;;13.70;99.90;;;;;;5086299;28;20063;-82
2022/07/06 02:11:06;;;;;;;12.07;1.75;;;13.70;99.90;;;;;;5068433;28;20142;-82
2022/07/06 02:13:33;;;;;;;5.90;1.38;;;13.70;99.90;;;;;;5054326;28;20053;-82
2022/07/06 02:15:59;;;;;;;4.32;0.90;;;13.60;99.90;;;;;;5053344;28;20124;-82
2022/07/06 02:18:25;;;;;;;6.22;0.90;;;13.60;99.90;;;;;;5053244;28;20041;-82
2022/07/06 02:20:51;;;;;;;5.72;1.00;;;13.60;99.90;;;;;;5085760;28;20044;-82
2022/07/06 02:23:16;;;;;;;3.58;1.17;;;13.60;99.90;;;;;;5035803;28;20087;-82
2022/07/06 02:25:42;;;;;;;8.27;1.45;;;13.60;99.90;;;;;;5068053;28;20102;-82
2022/07/06 02:28:08;;;;;;;3.70;0.90;;;13.60;99.90;;;;;;5053984;28;20159;-82
2022/07/06 02:30:34;;;;;;;9.48;1.10;;;13.60;99.90;;;;;;5039090;28;20092;-82
2022/07/06 02:32:59;;;;;;;6.05;1.00;;;13.60;99.90;;;;;;5065851;28;20073;-82
2022/07/06 02:35:25;;;;;;;5.53;0.90;;;13.60;99.90;;;;;;5078980;28;20056;-83
2022/07/06 02:37:51;;;;;;;5.78;1.25;;;13.60;99.90;;;;;;5085204;28;20049;-83
2022/07/06 02:40:17;;;;;;;5.45;0.85;;;13.50;99.90;;;;;;5052512;28;20090;-83
2022/07/06 02:42:46;;;;;;;5.88;0.80;;;13.60;99.90;;;;;;5053864;28;20118;-83
2022/07/06 02:45:12;;;;;;;4.65;1.17;;;13.60;99.90;;;;;;5084816;28;20124;-83
2022/07/06 02:47:40;;;;;;;6.13;0.80;;;13.60;99.90;;;;;;5053750;28;20124;-82
2022/07/06 02:50:06;;;;;;;5.57;1.02;;;13.60;99.90;;;;;;5052983;28;20102;-82
2022/07/06 02:52:32;;;;;;;5.80;1.23;;;13.60;99.90;;;;;;5052949;28;20443;-83
2022/07/06 02:54:58;;;;;;;6.40;1.00;;;13.60;99.90;;;;;;5051848;28;20120;-83
2022/07/06 02:57:24;;;;;;;6.43;0.93;;;13.60;99.90;;;;;;5053556;28;20515;-83
2022/07/06 02:59:49;;;;;;;7.20;0.90;;;13.60;99.90;;;;;;5052102;28;20037;-83
2022/07/06 03:02:17;;;;;;;7.30;0.90;;;13.60;99.90;;;;;;5053510;28;20045;-83
2022/07/06 03:04:43;;;;;;;5.18;1.10;;;13.60;99.90;;;;;;5084434;28;20045;-83
2022/07/06 03:07:08;;;;;;;4.15;0.80;;;13.60;99.90;;;;;;5084920;28;20049;-83
2022/07/06 03:09:34;;;;;;;4.63;0.90;;;13.60;99.90;;;;;;5052522;28;20049;-83
2022/07/06 03:12:00;;;;;;;5.03;1.20;;;13.60;99.90;;;;;;5053367;28;20524;-83
2022/07/06 03:14:26;;;;;;;5.35;0.95;;;13.60;99.90;;;;;;5084529;28;20091;-83
2022/07/06 03:16:52;;;;;;;5.80;1.10;;;13.60;99.90;;;;;;5085531;28;20057;-82
2022/07/06 03:19:18;;;;;;;6.55;0.93;;;13.60;99.90;;;;;;5081394;28;20037;-83
2022/07/06 03:21:44;;;;;;;4.57;0.90;;;13.50;99.90;;;;;;5032094;28;20048;-82
2022/07/06 03:24:09;;;;;;;3.40;0.73;;;13.50;99.90;;;;;;5067658;28;20050;-83
2022/07/06 03:26:35;;;;;;;5.63;0.80;;;13.50;99.90;;;;;;5085829;28;20052;-83
2022/07/06 03:29:01;;;;;;;4.68;0.70;;;13.50;99.90;;;;;;5084380;28;20476;-83
2022/07/06 03:31:27;;;;;;;5.95;0.90;;;13.50;99.90;;;;;;5068266;28;20040;-82
2022/07/06 03:33:53;;;;;;;6.13;0.98;;;13.40;99.90;;;;;;5051732;28;20049;-83
2022/07/06 03:36:18;;;;;;;2.75;0.73;;;13.40;99.90;;;;;;5053019;28;20041;-83
2022/07/06 03:38:44;;;;;;;7.13;0.88;;;13.40;99.90;;;;;;5052412;28;20052;-83
2022/07/06 03:41:10;;;;;;;4.40;0.80;;;13.30;99.90;;;;;;5084109;28;20055;-83
2022/07/06 03:43:36;;;;;;;3.92;1.33;;;13.30;99.90;;;;;;5085689;28;20033;-83
2022/07/06 03:46:01;;;;;;;9.27;1.20;;;13.30;99.90;;;;;;5051517;28;20477;-83
2022/07/06 03:48:27;;;;;;;8.38;1.30;;;13.20;99.90;;;;;;5052256;28;20451;-83
2022/07/06 03:50:53;;;;;;;6.82;0.88;;;13.10;99.90;;;;;;5051253;28;20427;-83
2022/07/06 03:53:18;;;;;;;9.57;1.40;;;13.10;99.90;;;;;;5055636;28;20106;-83
2022/07/06 03:56:27;;;;;;;3.75;0.70;;;13.10;99.90;;;;;;5087865;28;20041;-83
2022/07/06 03:58:30;;;;;;;6.55;1.17;;;13.00;99.90;;;;;;5055263;28;20084;-83
2022/07/06 04:00:56;;;;;;;6.80;1.13;;;13.00;99.90;;;;;;5056010;28;20126;-83
2022/07/06 04:03:21;;;;;;;1.60;0.55;;;12.90;99.90;;;;;;5088080;28;20455;-83
2022/07/06 04:05:47;;;;;;;4.20;0.75;;;12.90;99.90;;;;;;5088308;28;20060;-83
2022/07/06 04:08:13;;;;;;;5.57;1.02;;;12.90;99.90;;;;;;5056502;28;20416;-83
2022/07/06 04:10:39;;;;;;;5.50;0.98;;;12.90;99.90;;;;;;5054530;28;20049;-83
2022/07/06 04:13:05;;;;;;;7.68;0.85;;;12.90;99.90;;;;;;5088496;28;20481;-83
2022/07/06 04:15:31;;;;;;;6.05;0.93;;;12.80;99.90;;;;;;5088743;28;20084;-83
2022/07/06 04:17:56;;;;;;;2.70;0.60;;;12.80;99.90;;;;;;5055116;28;20041;-82
2022/07/06 04:20:27;;;;;;;6.32;1.50;;;12.80;99.90;;;;;;5056544;28;20037;-83
2022/07/06 04:22:53;;;;;;;4.88;0.90;;;12.80;99.90;;;;;;5040878;28;20049;-83
2022/07/06 04:25:19;;;;;;;2.67;0.60;;;12.80;99.90;;;;;;5035618;28;20042;-83
2022/07/06 04:27:45;;;;;;;6.95;1.05;;;12.70;99.90;;;;;;5049144;28;20083;-83
2022/07/06 04:30:11;;;;;;;2.55;0.77;;;12.70;99.90;;;;;;5054301;28;20033;-83
2022/07/06 04:32:38;;;;;;;8.80;1.30;;;12.70;99.90;;;;;;5086411;28;20055;-83
2022/07/06 04:35:05;;;;;;;4.35;0.80;;;12.70;99.90;;;;;;5088713;28;20041;-83
2022/07/06 04:37:31;;;;;;;3.40;0.80;;;12.80;99.90;;;;;;5070023;28;20061;-83
2022/07/06 04:39:57;;;;;;;3.08;0.70;;;12.80;99.90;;;;;;5088610;28;20033;-83
2022/07/06 04:42:23;;;;;;;4.63;1.13;;;12.80;99.90;;;;;;5087839;28;20485;-83
2022/07/06 04:44:49;;;;;;;4.30;0.80;;;12.80;99.90;;;;;;5070786;28;20496;-82
2022/07/06 04:47:14;;;;;;;6.72;1.00;;;12.80;99.90;;;;;;5055402;28;20087;-83
2022/07/06 04:49:40;;;;;;;7.00;0.80;;;12.90;99.90;;;;;;5071208;28;20044;-83
2022/07/06 04:52:07;;;;;;;5.13;1.10;;;12.90;99.90;;;;;;5086613;28;20058;-83
2022/07/06 04:54:33;;;;;;;3.67;0.63;;;12.90;99.90;;;;;;5088173;28;20045;-83
2022/07/06 04:56:58;;;;;;;3.13;0.82;;;13.00;99.90;;;;;;5055000;28;20132;-83
2022/07/06 04:59:24;;;;;;;4.53;0.77;;;13.00;99.90;;;;;;5055006;28;20037;-83
2022/07/06 05:01:50;;;;;;;4.10;0.90;;;13.10;99.90;;;;;;5087060;28;20049;-83
2022/07/06 05:04:19;;;;;;;6.50;1.08;;;13.10;99.90;;;;;;5087939;28;20041;-83
2022/07/06 05:06:45;;;;;;;7.65;1.15;;;13.10;99.90;;;;;;5086272;28;20051;-83
2022/07/06 05:09:12;;;;;;;6.80;1.52;;;13.10;99.90;;;;;;5055117;28;20057;-83
2022/07/06 05:11:38;;;;;;;6.20;1.10;;;13.20;99.90;;;;;;5087114;28;20052;-84
2022/07/06 05:14:04;;;;;;;3.22;0.60;;;13.20;99.90;;;;;;5045020;28;20125;-84
2022/07/06 05:16:30;;;;;;;10.75;1.70;;;13.20;99.90;;;;;;5086749;28;20049;-83
2022/07/06 05:18:55;;;;;;;5.25;0.73;;;13.30;99.90;;;;;;5050447;28;20049;-85
2022/07/06 05:21:21;;;;;;;10.20;0.95;;;13.30;99.90;;;;;;5026041;28;20037;-85
2022/07/06 05:23:47;;;;;;;3.97;0.80;;;13.40;99.90;;;;;;5098823;28;20036;-85
2022/07/06 05:26:13;;;;;;;5.03;0.90;;;13.40;99.90;;;;;;5087307;28;20045;-84
2022/07/06 05:28:39;;;;;;;2.83;1.00;;;13.50;99.90;;;;;;5052934;28;20048;-84
2022/07/06 05:31:05;;;;;;;5.45;0.98;;;13.50;99.90;;;;;;5037181;28;20037;-84
2022/07/06 05:33:30;;;;;;;5.53;1.10;;;13.60;99.90;;;;;;5054359;28;20044;-83
2022/07/06 05:35:56;;;;;;;4.10;1.10;;;13.60;99.90;;;;;;5055068;28;20378;-84
2022/07/06 05:38:22;;;;;;;2.38;0.73;;;13.60;99.90;;;;;;5041539;28;20174;-84
2022/07/06 05:40:47;;;;;;;3.83;0.80;;;13.60;99.90;;;;;;5053903;28;20639;-84
2022/07/06 05:43:13;;;;;;;7.45;0.90;;;13.60;99.90;;;;;;5054927;28;20041;-84
2022/07/06 05:45:39;;;;;;;11.20;1.17;;;13.70;99.90;;;;;;5053992;28;20044;-84
2022/07/06 05:50:49;;;;;;;5.20;0.70;;;13.80;99.90;;;;;;5053537;28;20056;-84
2022/07/06 05:53:15;;;;;;;6.65;0.85;;;13.80;99.90;;;;;;5053717;28;20041;-85
2022/07/06 05:55:41;;;;;;;5.00;1.00;;;13.80;99.90;;;;;;5035757;28;20481;-84
2022/07/06 05:58:06;;;;;;;5.05;1.15;;;13.90;99.90;;;;;;5034424;28;20475;-84
2022/07/06 06:00:32;;;;;;;4.95;0.70;;;14.00;99.90;;;;;;5033392;28;20041;-84
2022/07/06 06:02:59;;;;;;;5.25;0.80;;;14.10;99.90;;;;;;5032618;28;20045;-84
2022/07/06 06:05:24;;;;;;;4.40;0.80;;;14.10;99.90;;;;;;5033143;28;20051;-84
2022/07/06 06:07:53;;;;;;;4.00;0.93;;;14.20;99.90;;;;;;5066588;28;20053;-85
2022/07/06 06:10:21;;;;;;;4.47;0.68;;;14.20;99.90;;;;;;5065525;28;20119;-85
2022/07/06 06:12:47;;;;;;;6.90;1.17;;;14.20;99.90;;;;;;5067054;28;20052;-85
2022/07/06 06:15:13;;;;;;;3.33;0.68;;;14.20;99.90;;;;;;5033735;28;20390;-85
2022/07/06 06:17:39;;;;;;;4.15;0.75;;;14.20;99.90;;;;;;5048526;28;20049;-84
2022/07/06 06:20:08;;;;;;;3.00;0.85;;;14.20;99.90;;;;;;5051957;28;20049;-83
2022/07/06 06:22:53;;;;;;;2.60;0.80;;;14.20;99.90;;;;;;5053199;28;20485;-82
2022/07/06 06:25:26;;;;;;;3.85;0.77;;;14.20;99.90;;;;;;5052767;28;20053;-82
2022/07/06 06:27:52;;;;;;;3.83;0.82;;;14.20;99.90;;;;;;5050773;28;20045;-82
2022/07/06 06:30:17;;;;;;;8.65;1.13;;;14.20;99.90;;;;;;5032065;28;20095;-82
2022/07/06 06:32:43;;;;;;;5.93;1.00;;;14.20;99.90;;;;;;5033754;28;20044;-82
2022/07/06 06:35:12;;;;;;;6.38;1.13;;;14.30;99.90;;;;;;5032342;28;20045;-83
2022/07/06 06:37:38;;;;;;;6.57;0.93;;;14.50;99.90;;;;;;5064824;28;20485;-83
2022/07/06 06:40:05;;;;;;;5.47;1.70;;;14.60;99.90;;;;;;5032672;28;20041;-83
2022/07/06 06:42:32;;;;;;;5.22;0.93;;;14.80;99.90;;;;;;5032359;28;20042;-83
2022/07/06 06:44:57;;;;;;;4.32;0.88;;;15.00;99.90;;;;;;5032061;28;20045;-84
2022/07/06 06:47:23;;;;;;;6.80;1.75;;;15.20;99.90;;;;;;5033526;28;20056;-83
2022/07/06 06:49:49;;;;;;;6.68;0.95;;;15.30;99.90;;;;;;5032287;28;20195;-83
2022/07/06 06:52:15;;;;;;;7.70;0.85;;;15.30;99.90;;;;;;5033070;28;20045;-84
2022/07/06 06:54:41;;;;;;;5.22;1.55;;;15.40;99.90;;;;;;5032559;28;20396;-84
2022/07/06 06:57:06;;;;;;;4.10;0.75;;;15.50;99.90;;;;;;5085435;28;20127;-84
2022/07/06 06:59:32;;;;;;;7.72;0.82;;;15.50;99.90;;;;;;5035013;28;20041;-84
2022/07/06 07:01:58;;;;;;;6.88;1.27;;;15.60;99.90;;;;;;5052277;28;20394;-85
2022/07/06 07:04:38;;;;;;;4.53;0.70;;;15.70;99.90;;;;;;5054958;28;20033;-85
2022/07/06 07:07:03;;;;;;;5.20;0.82;;;15.90;99.90;;;;;;5072450;28;20091;-87
2022/07/06 07:09:38;;;;;;;3.13;0.73;;;16.00;99.90;;;;;;5071790;28;20091;-84
2022/07/06 07:12:04;;;;;;;3.10;0.82;;;16.10;99.90;;;;;;5060637;28;20393;-86
2022/07/06 07:14:30;;;;;;;6.60;0.52;;;16.10;99.90;;;;;;5053196;28;20564;-85
2022/07/06 07:16:59;;;;;;;3.45;0.90;;;16.00;99.90;;;;;;5053433;28;20132;-86
2022/07/06 07:19:25;;;;;;;2.35;0.55;;;15.90;99.90;;;;;;5048865;28;20041;-84
2022/07/06 07:21:51;;;;;;;7.68;1.00;;;15.90;99.90;;;;;;5057283;28;20064;-86
2022/07/06 07:24:17;;;;;;;3.85;0.90;;;15.80;99.90;;;;;;5061560;28;20094;-87
2022/07/06 07:26:43;;;;;;;2.70;0.77;;;15.70;99.90;;;;;;5062970;28;20040;-86
2022/07/06 07:29:09;;;;;;;6.60;0.80;;;15.70;99.90;;;;;;5059017;28;20041;-85
2022/07/06 07:31:34;;;;;;;4.45;0.75;;;15.70;99.90;;;;;;5089397;28;20390;-85
2022/07/06 07:34:00;;;;;;;4.35;0.73;;;15.70;99.90;;;;;;5088444;28;20052;-86
2022/07/06 07:36:26;;;;;;;5.85;0.90;;;15.70;99.90;;;;;;5049447;28;20042;-86
2022/07/06 07:38:52;;;;;;;4.60;0.85;;;15.90;99.90;;;;;;5047547;28;20370;-85
2022/07/06 07:41:24;;;;;;;5.03;0.93;;;16.00;99.90;;;;;;5068944;28;20037;-86
2022/07/06 07:43:50;;;;;;;4.43;1.58;;;16.10;99.90;;;;;;5058230;28;20724;-88
2022/07/06 07:46:16;;;;;;;2.80;0.43;;;16.30;99.90;;;;;;5036228;28;20102;-88
2022/07/06 07:48:54;;;;;;;3.35;0.60;;;16.40;99.90;;;;;;5056573;28;20550;-87
2022/07/06 07:51:19;;;;;;;4.57;0.95;;;16.50;99.90;;;;;;5052232;28;20120;-86
2022/07/06 07:53:46;;;;;;;2.35;0.63;;;16.60;99.90;;;;;;5039952;28;20115;-86
2022/07/06 07:56:12;;;;;;;3.70;0.65;;;16.70;99.90;;;;;;5054778;28;20049;-85
2022/07/06 07:58:37;;;;;;;3.22;0.65;;;16.70;99.90;;;;;;5087730;28;20053;-86
2022/07/06 08:01:04;;;;;;;2.05;0.60;;;16.80;99.90;;;;;;5089211;28;20041;-85
2022/07/06 08:03:31;;;;;;;4.85;0.50;;;16.90;99.90;;;;;;5055204;28;20049;-85
2022/07/06 08:05:57;;;;;;;7.05;1.58;;;16.90;99.90;;;;;;5088863;28;20127;-88
2022/07/06 08:08:23;;;;;;;4.65;0.45;;;16.90;99.90;;;;;;5053427;28;20053;-87
2022/07/06 08:10:49;;;;;;;2.47;0.57;;;16.90;99.90;;;;;;5036183;28;20048;-85
2022/07/06 08:13:15;;;;;;;7.22;0.70;;;16.90;99.90;;;;;;5088374;28;20519;-86
2022/07/06 08:15:42;;;;;;;2.80;0.60;;;16.80;99.90;;;;;;5071141;28;20037;-85
2022/07/06 08:18:09;;;;;;;3.63;0.57;;;16.80;99.90;;;;;;5057352;28;20041;-84
2022/07/06 08:20:39;;;;;;;3.63;0.57;;;16.90;99.90;;;;;;5071804;28;20045;-84
2022/07/06 08:23:05;;;;;;;2.25;0.82;;;17.00;99.90;;;;;;5055627;28;20044;-85
2022/07/06 08:25:31;;;;;;;11.75;1.10;;;17.10;99.90;;;;;;5055576;28;20524;-86
2022/07/06 08:27:57;;;;;;;1.55;0.50;;;17.20;99.90;;;;;;5068333;28;20085;-85
2022/07/06 08:30:23;;;;;;;1.92;0.47;;;17.10;99.90;;;;;;5043792;28;20504;-85
2022/07/06 08:32:49;;;;;;;3.80;0.70;;;17.10;99.90;;;;;;5089548;28;20048;-84
2022/07/06 08:35:15;;;;;;;3.45;0.90;;;17.10;99.90;;;;;;5088214;28;20555;-86
2022/07/06 08:37:41;;;;;;;9.32;1.15;;;17.10;99.90;;;;;;5085758;28;20053;-84
2022/07/06 08:40:08;;;;;;;1.75;0.45;;;17.20;99.90;;;;;;5054082;28;20052;-86
2022/07/06 08:42:34;;;;;;;4.82;0.70;;;17.30;99.90;;;;;;5039775;28;20049;-84
2022/07/06 08:45:06;;;;;;;3.35;0.90;;;17.40;99.90;;;;;;5085082;28;20047;-85
2022/07/06 08:47:35;;;;;;;7.72;0.60;;;17.50;99.90;;;;;;5058065;28;20049;-85
2022/07/06 08:50:02;;;;;;;2.58;0.52;;;17.50;99.90;;;;;;5055643;28;20118;-84
2022/07/06 08:52:28;;;;;;;2.80;0.57;;;17.50;99.90;;;;;;5053878;28;20090;-84
2022/07/06 08:54:54;;;;;;;3.33;0.60;;;17.60;99.90;;;;;;5053598;28;20484;-82
2022/07/06 08:57:20;;;;;;;4.80;0.60;;;17.50;99.90;;;;;;5037646;28;20045;-81
2022/07/06 08:59:46;;;;;;;6.75;0.98;;;17.40;99.90;;;;;;5034742;28;20490;-84
2022/07/06 09:02:13;;;;;;;6.63;0.90;;;17.30;99.90;;;;;;5038179;28;20049;-84
2022/07/06 09:04:43;;;;;;;5.70;0.70;;;17.20;99.90;;;;;;5066968;28;20055;-85
2022/07/06 09:07:09;;;;;;;4.07;0.70;;;17.30;99.90;;;;;;5051199;28;20056;-84
2022/07/06 09:09:36;;;;;;;4.78;0.90;;;17.40;99.90;;;;;;5052333;28;20045;-85
2022/07/06 09:12:02;;;;;;;3.83;0.75;;;17.50;99.90;;;;;;5069113;28;20496;-86
2022/07/06 09:14:32;;;;;;;1.45;0.40;;;17.60;99.90;;;;;;5053377;28;20052;-85
2022/07/06 09:17:04;;;;;;;4.75;0.60;;;18.60;99.90;;;;;;5042115;28;20045;-87
2022/07/06 09:19:34;;;;;;;4.80;0.68;;;17.70;99.90;;;;;;5066635;28;20045;-86
2022/07/06 09:22:01;;;;;;;3.63;0.77;;;17.60;99.90;;;;;;5048540;28;20386;-85
2022/07/06 09:24:31;;;;;;;4.70;0.70;;;17.60;99.90;;;;;;5055349;28;20047;-85
2022/07/06 09:26:58;;;;;;;3.22;0.80;;;17.70;99.90;;;;;;5075489;28;20107;-83
2022/07/06 09:29:31;;;;;;;5.90;0.60;;;17.80;99.90;;;;;;5068694;28;20571;-83
2022/07/06 09:31:59;;;;;;;1.50;0.40;;;18.00;99.90;;;;;;5087929;28;20041;-86
2022/07/06 09:34:26;;;;;;;3.13;1.15;;;18.20;99.90;;;;;;5086413;28;20132;-84
2022/07/06 09:36:52;;;;;;;2.20;0.40;;;18.40;99.90;;;;;;5078217;28;20041;-85
2022/07/06 09:39:29;;;;;;;7.05;0.75;;;18.30;99.90;;;;;;5034964;28;20506;-84
2022/07/06 09:41:56;;;;;;;1.63;0.28;;;18.20;99.90;;;;;;5044156;28;20037;-84
2022/07/06 09:44:22;;;;;;;3.80;0.52;;;18.00;99.90;;;;;;5053610;28;20048;-84
2022/07/06 09:46:48;;;;;;;4.78;0.60;;;17.80;99.90;;;;;;5046404;28;20045;-82
2022/07/06 09:49:19;;;;;;;3.90;0.55;;;17.70;99.90;;;;;;5053477;28;20048;-84
2022/07/06 09:51:46;;;;;;;1.60;0.40;;;17.70;99.90;;;;;;5065550;28;20060;-83
2022/07/06 09:54:12;;;;;;;3.00;0.80;;;17.70;99.90;;;;;;5048379;28;20428;-84
2022/07/06 09:56:39;;;;;;;4.88;0.50;;;17.80;99.90;;;;;;5066889;28;20045;-85
2022/07/06 09:59:11;;;;;;;4.72;0.70;;;17.90;99.90;;;;;;5035976;28;20057;-84
2022/07/06 10:01:38;;;;;;;3.08;0.60;;;18.00;99.90;;;;;;5069010;28;20067;-86
2022/07/06 10:04:06;;;;;;;3.40;1.00;;;18.10;99.90;;;;;;5072754;28;20064;-86
2022/07/06 10:06:32;;;;;;;3.47;0.57;;;18.10;99.90;;;;;;5085655;28;20079;-85
2022/07/06 10:08:58;;;;;;;3.08;0.73;;;18.10;99.90;;;;;;5054499;28;20424;-84
2022/07/06 10:11:25;;;;;;;4.03;1.25;;;18.20;99.90;;;;;;5083674;28;20083;-84
2022/07/06 10:13:55;;;;;;;4.68;1.00;;;18.20;99.90;;;;;;5047813;28;20067;-85
2022/07/06 10:16:23;;;;;;;1.85;0.50;;;18.20;99.90;;;;;;5084920;28;20053;-84
2022/07/06 10:18:50;;;;;;;2.90;0.80;;;18.30;99.90;;;;;;5086800;28;20049;-84
2022/07/06 10:21:17;;;;;;;4.05;0.60;;;18.50;99.90;;;;;;5054964;28;20052;-84
2022/07/06 10:23:44;;;;;;;7.72;0.77;;;18.60;99.90;;;;;;5045348;28;20397;-83
2022/07/06 10:26:10;;;;;;;3.47;0.65;;;18.70;99.90;;;;;;5033869;28;20448;-84
2022/07/06 10:28:37;;;;;;;2.90;0.63;;;18.80;99.90;;;;;;5040008;28;20053;-83
2022/07/06 10:31:04;;;;;;;3.92;0.65;;;18.80;99.90;;;;;;5053580;28;20123;-84
2022/07/06 10:33:31;;;;;;;4.05;0.80;;;18.70;99.90;;;;;;5052688;28;20048;-84
2022/07/06 10:35:57;;;;;;;4.28;0.63;;;18.60;99.90;;;;;;5051066;28;20080;-84
2022/07/06 10:38:34;;;;;;;8.88;0.70;;;18.60;99.90;;;;;;5067874;28;20485;-84
2022/07/06 10:41:09;;;;;;;4.57;1.05;;;18.70;99.90;;;;;;5058162;28;20044;-85
2022/07/06 10:43:45;;;;;;;6.65;0.95;;;18.80;99.90;;;;;;5058709;28;20080;-83
2022/07/06 10:46:14;;;;;;;3.70;0.70;;;18.80;99.90;;;;;;5084401;28;20128;-82
2022/07/06 10:48:44;;;;;;;3.55;0.80;;;18.80;99.90;;;;;;5032417;28;20042;-84
2022/07/06 10:51:27;;;;;;;4.05;0.85;;;18.90;99.90;;;;;;5033550;28;20049;-84
2022/07/06 10:54:05;;;;;;;2.58;0.70;;;19.00;99.90;;;;;;5033582;28;20497;-84
2022/07/06 10:56:48;;;;;;;3.78;0.77;;;18.80;99.90;;;;;;5033564;28;20048;-85
2022/07/06 10:59:20;;;;;;;3.92;1.10;;;18.70;99.90;;;;;;5081567;28;20045;-83
2022/07/06 11:02:15;;;;;;;2.33;0.57;;;18.70;99.90;;;;;;5088817;28;20119;-85
2022/07/06 11:04:45;;;;;;;3.78;1.00;;;18.60;99.90;;;;;;5063979;28;20041;-84
2022/07/06 11:07:17;;;;;;;2.75;0.50;;;18.60;99.90;;;;;;5065458;28;20132;-85
2022/07/06 11:10:06;;;;;;;3.53;0.30;;;18.70;99.90;;;;;;5065375;28;20064;-84
2022/07/06 11:12:35;;;;;;;3.97;0.60;;;18.90;99.90;;;;;;5035795;28;21109;-85
2022/07/06 11:15:03;;;;;;;3.58;0.60;;;19.00;99.90;;;;;;5053506;28;20094;-86
2022/07/06 11:17:29;;;;;;;3.90;0.65;;;19.10;99.90;;;;;;5052055;28;20045;-83
2022/07/06 11:19:58;;;;;;;3.85;0.70;;;19.20;99.90;;;;;;5032514;28;20095;-86
2022/07/06 11:22:24;;;;;;;2.70;0.80;;;19.30;99.90;;;;;;5065397;28;20049;-86
2022/07/06 11:24:55;;;;;;;2.75;0.70;;;19.40;99.90;;;;;;5052767;28;20089;-83
2022/07/06 11:27:23;;;;;;;1.83;0.40;;;19.50;99.90;;;;;;5084793;28;20088;-84
2022/07/06 11:29:53;;;;;;;3.80;0.98;;;19.60;99.90;;;;;;5036888;28;20041;-85
2022/07/06 11:32:24;;;;;;;3.15;0.52;;;19.70;99.90;;;;;;5053731;28;20056;-83
2022/07/06 11:34:52;;;;;;;4.22;0.60;;;19.70;99.90;;;;;;5085524;28;20518;-84
2022/07/06 11:37:18;;;;;;;1.50;0.40;;;19.80;99.90;;;;;;5068562;28;20044;-83
2022/07/06 11:39:48;;;;;;;6.28;0.88;;;19.80;99.90;;;;;;5052475;28;20431;-82
2022/07/06 11:42:18;;;;;;;7.35;0.70;;;19.80;99.90;;;;;;5039725;28;20072;-83
2022/07/06 11:44:45;;;;;;;2.45;0.45;;;20.00;99.90;;;;;;5065476;28;20378;-83
2022/07/06 11:47:15;;;;;;;9.88;1.33;;;20.10;99.90;;;;;;5044681;28;20107;-85
2022/07/06 11:49:41;;;;;;;5.68;0.63;;;20.10;99.90;;;;;;5052741;28;20049;-84
2022/07/06 11:52:12;;;;;;;4.57;0.73;;;20.10;99.90;;;;;;5074965;28;20134;-90
2022/07/06 11:54:39;;;;;;;4.70;0.95;;;20.00;99.90;;;;;;5064891;28;20056;-83
2022/07/06 11:57:09;;;;;;;2.97;0.47;;;19.80;99.90;;;;;;5032713;28;20057;-84
2022/07/06 11:59:37;;;;;;;1.95;0.43;;;19.70;99.90;;;;;;5041680;28;20055;-83
2022/07/06 12:02:08;;;;;;;1.67;0.57;;;19.80;99.90;;;;;;5084406;28;20081;-84
2022/07/06 12:04:36;;;;;;;1.00;0.40;;;20.00;99.90;;;;;;5078151;28;20088;-83
2022/07/06 12:07:05;;;;;;;2.53;0.50;;;20.00;99.90;;;;;;5048411;28;20139;-82
2022/07/06 12:09:32;;;;;;;3.13;0.52;;;20.00;99.90;;;;;;5064299;28;20057;-82
2022/07/06 12:12:01;;;;;;;2.25;0.40;;;20.00;99.90;;;;;;5033260;28;20136;-84
2022/07/06 12:14:28;;;;;;;4.45;0.60;;;20.00;99.90;;;;;;5036182;28;20509;-85
2022/07/06 12:17:05;;;;;;;3.70;0.90;;;20.00;99.90;;;;;;5035512;28;20132;-87
2022/07/06 12:19:31;;;;;;;2.05;0.50;;;20.10;99.90;;;;;;5042852;28;20438;-86
2022/07/06 12:21:57;;;;;;;2.38;1.05;;;20.00;99.90;;;;;;5071305;28;20400;-84
2022/07/06 12:24:30;;;;;;;2.92;0.50;;;19.90;99.90;;;;;;5037481;28;20081;-83
2022/07/06 12:26:57;;;;;;;2.72;0.90;;;19.90;99.90;;;;;;5036468;28;20408;-84
2022/07/06 12:29:23;;;;;;;2.85;0.50;;;20.00;99.90;;;;;;5038231;28;20481;-89
2022/07/06 12:31:51;;;;;;;3.42;0.60;;;20.10;99.90;;;;;;5042174;28;20055;-92
2022/07/06 12:34:19;;;;;;;3.15;0.40;;;20.10;99.90;;;;;;5036628;28;20041;-83
2022/07/06 12:36:46;;;;;;;2.80;0.63;;;20.00;99.90;;;;;;5035431;28;20115;-82
2022/07/06 12:39:14;;;;;;;2.13;0.88;;;20.00;99.90;;;;;;5035135;28;20437;-87
2022/07/06 12:41:46;;;;;;;5.75;0.73;;;20.10;99.90;;;;;;5047474;28;20041;-91
2022/07/06 12:44:13;;;;;;;2.70;0.60;;;20.20;99.90;;;;;;5054865;28;20044;-83
2022/07/06 12:46:40;;;;;;;4.03;0.63;;;20.10;99.90;;;;;;5076980;28;20519;-82
2022/07/06 12:49:23;;;;;;;3.58;0.88;;;20.10;99.90;;;;;;5067954;28;20129;-85